Time;durP1;ratioP1;P1;durP2;ratioP2;P2;SDS_P1;SDS_P2;PMS_P1;PMS_P2;Temp;Humidity;BMP_temperature;BMP_pressure;BME280_temperature;BME280_humidity;BME280_pressure;Samples;Min_cycle;Max_cycle;Signal;HPM_P1;HPM_P2
2023/03/27 00:01:30;;;;;;;4.50;2.23;;;2.50;99.90;;;;;;5029142;28;20584;-51
2023/03/27 00:03:57;;;;;;;6.87;1.90;;;2.50;99.90;;;;;;5031256;28;20452;-52
2023/03/27 00:06:26;;;;;;;4.83;2.13;;;2.50;99.90;;;;;;5028757;28;20488;-51
2023/03/27 00:08:53;;;;;;;6.53;2.30;;;2.50;99.90;;;;;;5031027;28;20487;-51
2023/03/27 00:11:21;;;;;;;8.73;2.00;;;2.60;99.90;;;;;;5026726;28;20459;-51
2023/03/27 00:13:49;;;;;;;3.60;2.60;;;2.70;99.90;;;;;;5018702;28;20475;-50
2023/03/27 00:16:17;;;;;;;4.50;1.90;;;2.80;99.90;;;;;;5031014;28;20466;-51
2023/03/27 00:18:43;;;;;;;8.50;2.83;;;2.80;99.90;;;;;;5028890;28;20558;-51
2023/03/27 00:21:10;;;;;;;6.87;2.13;;;2.90;99.90;;;;;;5031628;28;20541;-51
2023/03/27 00:23:36;;;;;;;4.77;2.20;;;3.00;99.90;;;;;;5025841;28;21006;-50
2023/03/27 00:26:04;;;;;;;4.43;2.00;;;3.00;99.90;;;;;;5030632;28;20472;-50
2023/03/27 00:28:31;;;;;;;5.50;2.40;;;3.00;99.90;;;;;;5029779;28;20991;-51
2023/03/27 00:30:58;;;;;;;5.93;1.97;;;3.00;99.90;;;;;;5028518;28;20463;-52
2023/03/27 00:33:26;;;;;;;5.00;2.17;;;3.10;99.90;;;;;;5029311;28;20487;-51
2023/03/27 00:35:54;;;;;;;3.67;1.73;;;3.00;99.90;;;;;;5030249;28;20493;-51
2023/03/27 00:38:21;;;;;;;6.83;2.30;;;3.00;99.90;;;;;;5030815;28;20529;-50
2023/03/27 00:40:49;;;;;;;2.50;1.77;;;3.00;99.90;;;;;;5030710;28;20582;-50
2023/03/27 00:43:21;;;;;;;4.70;1.80;;;3.00;99.90;;;;;;5030646;28;20464;-50
2023/03/27 00:45:50;;;;;;;4.60;2.07;;;3.00;99.90;;;;;;5028582;28;21030;-51
2023/03/27 00:48:19;;;;;;;4.67;2.20;;;3.00;99.90;;;;;;5039173;22;20489;-50
2023/03/27 00:50:49;;;;;;;4.37;2.40;;;2.80;99.90;;;;;;5005725;28;20465;-49
2023/03/27 00:53:20;;;;;;;5.10;2.10;;;2.80;99.90;;;;;;5002773;28;21054;-51
2023/03/27 00:55:50;;;;;;;4.67;1.97;;;2.70;99.90;;;;;;5012536;28;20551;-50
2023/03/27 00:58:21;;;;;;;4.63;2.50;;;2.60;99.90;;;;;;5011806;28;20464;-50
2023/03/27 01:00:50;;;;;;;3.67;1.43;;;2.60;99.90;;;;;;4986286;28;20575;-50
2023/03/27 01:03:18;;;;;;;8.47;2.47;;;2.50;99.90;;;;;;4993360;28;20464;-49
2023/03/27 01:05:47;;;;;;;5.93;1.90;;;2.50;99.90;;;;;;4995164;28;20471;-49
2023/03/27 01:08:15;;;;;;;5.33;1.90;;;2.50;99.90;;;;;;4995222;28;20448;-50
2023/03/27 01:13:47;;;;;;;1.57;1.47;;;2.70;99.90;;;;;;4935325;28;20458;-53
2023/03/27 01:16:21;;;;;;;4.30;2.43;;;2.80;99.90;;;;;;4979097;28;20465;-50
2023/03/27 01:19:02;;;;;;;6.47;2.17;;;2.80;99.90;;;;;;5005154;28;20469;-50
2023/03/27 01:21:54;;;;;;;7.03;1.90;;;2.70;99.90;;;;;;4998828;28;20488;-50
2023/03/27 01:24:58;;;;;;;2.93;1.90;;;2.70;99.90;;;;;;4990124;28;20460;-49
2023/03/27 01:27:50;;;;;;;3.23;1.77;;;2.60;99.90;;;;;;5002532;28;20506;-50
2023/03/27 01:30:23;;;;;;;6.70;2.00;;;2.60;99.90;;;;;;4993139;28;20476;-50
2023/03/27 01:33:15;;;;;;;8.43;1.73;;;2.50;99.90;;;;;;5008902;28;20934;-50
2023/03/27 01:36:09;;;;;;;3.50;2.10;;;2.40;99.90;;;;;;4992755;28;20539;-50
2023/03/27 01:39:05;;;;;;;13.20;2.40;;;2.40;99.90;;;;;;4994215;28;20502;-50
2023/03/27 01:41:38;;;;;;;3.00;1.60;;;2.40;99.90;;;;;;4999187;28;20902;-50
2023/03/27 01:44:12;;;;;;;3.37;1.70;;;2.40;99.90;;;;;;4991814;28;20882;-50
2023/03/27 01:46:47;;;;;;;4.83;1.63;;;2.40;99.90;;;;;;5011242;28;20519;-49
2023/03/27 01:49:18;;;;;;;3.30;1.53;;;2.40;99.90;;;;;;4997403;28;20491;-50
2023/03/27 01:51:48;;;;;;;9.60;1.80;;;2.30;99.90;;;;;;5012157;28;20461;-50
2023/03/27 01:54:20;;;;;;;2.20;1.40;;;2.30;99.90;;;;;;4987591;28;20963;-49
2023/03/27 01:56:52;;;;;;;4.73;1.77;;;2.20;99.90;;;;;;4998451;28;20955;-49
2023/03/27 01:59:21;;;;;;;2.73;1.97;;;2.20;99.90;;;;;;5003592;28;20483;-49
2023/03/27 02:01:54;;;;;;;5.57;2.13;;;2.20;99.90;;;;;;5011976;28;20542;-49
2023/03/27 02:04:26;;;;;;;1.37;1.27;;;2.10;99.90;;;;;;5006304;28;20507;-49
2023/03/27 02:06:57;;;;;;;2.90;1.40;;;2.00;99.90;;;;;;4997012;28;21006;-50
2023/03/27 02:09:32;;;;;;;2.13;1.70;;;2.00;99.90;;;;;;4994568;28;20985;-49
2023/03/27 02:12:06;;;;;;;3.43;1.80;;;1.90;99.90;;;;;;4993719;28;20488;-50
2023/03/27 02:14:36;;;;;;;4.27;1.50;;;1.90;99.90;;;;;;5008310;28;20997;-50
2023/03/27 02:17:08;;;;;;;6.03;1.50;;;1.90;99.90;;;;;;5004977;28;20489;-50
2023/03/27 02:19:39;;;;;;;3.80;1.53;;;1.90;99.90;;;;;;5005218;28;20487;-50
2023/03/27 02:22:06;;;;;;;1.77;1.40;;;1.80;99.90;;;;;;5003251;28;20484;-50
2023/03/27 02:24:33;;;;;;;1.13;1.13;;;1.80;99.90;;;;;;5004681;28;20553;-50
2023/03/27 02:27:11;;;;;;;3.57;1.80;;;1.70;99.90;;;;;;5012360;28;20445;-50
2023/03/27 02:29:59;;;;;;;2.13;1.50;;;1.70;99.90;;;;;;4998623;28;20486;-50
2023/03/27 02:32:37;;;;;;;2.30;1.50;;;1.70;99.90;;;;;;4975109;28;20518;-50
2023/03/27 02:35:30;;;;;;;2.30;1.53;;;1.60;99.90;;;;;;4997061;28;20465;-54
2023/03/27 02:38:08;;;;;;;2.13;1.73;;;1.60;99.90;;;;;;5006468;28;20461;-50
2023/03/27 02:40:45;;;;;;;3.97;1.60;;;1.60;99.90;;;;;;4998376;28;20459;-50
2023/03/27 02:43:17;;;;;;;3.33;1.80;;;1.60;99.90;;;;;;5005993;28;20861;-49
2023/03/27 02:45:51;;;;;;;3.67;1.63;;;1.60;99.90;;;;;;4988410;28;20473;-49
2023/03/27 02:48:23;;;;;;;1.30;1.20;;;1.70;99.90;;;;;;4980437;28;20462;-49
2023/03/27 02:50:53;;;;;;;3.13;1.53;;;1.80;99.90;;;;;;4993857;28;20460;-50
2023/03/27 02:53:23;;;;;;;3.63;1.87;;;1.90;99.90;;;;;;5013368;28;20926;-50
2023/03/27 02:55:53;;;;;;;1.20;1.10;;;1.90;99.90;;;;;;4992893;28;20838;-50
2023/03/27 02:58:29;;;;;;;3.60;1.60;;;1.90;99.90;;;;;;5004925;28;20479;-49
2023/03/27 03:01:00;;;;;;;3.80;1.47;;;1.80;99.90;;;;;;4998082;28;20471;-49
2023/03/27 03:03:33;;;;;;;7.27;1.37;;;1.70;99.90;;;;;;4998015;28;20518;-50
2023/03/27 03:06:03;;;;;;;1.93;1.20;;;1.60;99.90;;;;;;5007336;28;20518;-49
2023/03/27 03:08:30;;;;;;;1.43;1.33;;;1.60;99.90;;;;;;4995474;28;20484;-50
2023/03/27 03:11:01;;;;;;;5.03;1.33;;;1.50;99.90;;;;;;5003942;28;20476;-50
2023/03/27 03:13:29;;;;;;;1.47;1.33;;;1.40;99.90;;;;;;5008796;28;20958;-50
2023/03/27 03:15:56;;;;;;;1.77;1.50;;;1.30;99.90;;;;;;5000555;28;20861;-50
2023/03/27 03:18:23;;;;;;;1.40;1.30;;;1.30;99.90;;;;;;4994368;28;20494;-49
2023/03/27 03:20:52;;;;;;;3.20;1.50;;;1.30;99.90;;;;;;4998589;28;20496;-49
2023/03/27 03:23:19;;;;;;;1.23;1.13;;;1.20;99.90;;;;;;4992491;28;20521;-50
2023/03/27 03:25:46;;;;;;;2.13;1.47;;;1.20;99.90;;;;;;4992040;28;20476;-50
2023/03/27 03:28:16;;;;;;;1.30;1.20;;;1.20;99.90;;;;;;4998756;28;20463;-50
2023/03/27 03:30:49;;;;;;;1.53;1.17;;;1.10;99.90;;;;;;5007535;28;20463;-50
2023/03/27 03:33:16;;;;;;;1.93;1.20;;;1.10;99.90;;;;;;4991254;28;20456;-50
2023/03/27 03:35:45;;;;;;;4.10;1.53;;;1.00;99.90;;;;;;5012031;28;20444;-50
2023/03/27 03:38:12;;;;;;;4.70;1.27;;;1.00;99.90;;;;;;4993906;28;20535;-50
2023/03/27 03:40:39;;;;;;;1.43;1.33;;;0.90;99.90;;;;;;5001409;28;21064;-49
2023/03/27 03:43:05;;;;;;;1.40;1.30;;;0.90;99.90;;;;;;5007534;28;20492;-49
2023/03/27 03:45:32;;;;;;;2.40;1.60;;;0.90;99.90;;;;;;5011989;28;20440;-50
2023/03/27 03:48:00;;;;;;;1.30;1.20;;;1.00;99.90;;;;;;5000859;28;20462;-50
2023/03/27 03:50:26;;;;;;;3.83;1.50;;;0.90;99.90;;;;;;4987995;28;20474;-49
2023/03/27 03:52:53;;;;;;;3.33;1.73;;;0.80;99.90;;;;;;4999323;28;20522;-49
2023/03/27 03:55:19;;;;;;;1.50;1.40;;;0.80;99.90;;;;;;4998585;28;20500;-49
2023/03/27 03:57:47;;;;;;;2.17;2.07;;;0.80;99.90;;;;;;4989017;28;20879;-52
2023/03/27 04:00:15;;;;;;;2.60;2.07;;;0.70;99.90;;;;;;4996254;28;20460;-53
2023/03/27 04:02:42;;;;;;;2.33;2.00;;;0.70;99.90;;;;;;5008490;28;20488;-53
2023/03/27 04:05:11;;;;;;;2.60;2.27;;;0.50;99.90;;;;;;5010455;28;20440;-52
2023/03/27 04:07:38;;;;;;;4.70;2.10;;;0.60;75.60;;;;;;4993590;28;21220;-53
2023/03/27 04:10:07;;;;;;;4.33;2.03;;;0.60;79.20;;;;;;5000931;28;20539;-53
2023/03/27 04:12:34;;;;;;;1.80;1.70;;;0.50;64.30;;;;;;4997941;28;20470;-52
2023/03/27 04:15:00;;;;;;;1.90;1.73;;;0.50;57.90;;;;;;4992388;28;20887;-50
2023/03/27 04:17:27;;;;;;;1.93;1.80;;;0.50;53.40;;;;;;5005369;28;20907;-50
2023/03/27 04:19:54;;;;;;;1.87;1.67;;;0.40;35.40;;;;;;5000082;28;20542;-51
2023/03/27 04:22:22;;;;;;;3.20;1.77;;;0.40;38.40;;;;;;5008031;28;20999;-50
2023/03/27 04:24:49;;;;;;;1.67;1.57;;;0.40;32.10;;;;;;5004953;28;20547;-50
2023/03/27 04:27:16;;;;;;;2.70;1.73;;;0.30;33.00;;;;;;5001620;28;20488;-50
2023/03/27 04:29:46;;;;;;;4.30;1.83;;;0.30;95.80;;;;;;4999676;28;20529;-51
2023/03/27 04:32:17;;;;;;;1.87;1.57;;;0.30;99.90;;;;;;5011921;28;20532;-51
2023/03/27 04:34:44;;;;;;;2.30;1.87;;;0.30;99.90;;;;;;5005171;28;20530;-52
2023/03/27 04:37:11;;;;;;;2.37;1.73;;;0.40;99.90;;;;;;5012076;28;20448;-51
2023/03/27 04:39:41;;;;;;;1.37;1.33;;;0.40;99.90;;;;;;4998762;28;20566;-51
2023/03/27 04:42:08;;;;;;;2.20;1.77;;;0.40;99.90;;;;;;5008874;28;20482;-51
2023/03/27 04:44:35;;;;;;;3.37;2.23;;;0.40;99.90;;;;;;5002359;28;20723;-51
2023/03/27 04:47:02;;;;;;;4.07;1.70;;;0.40;99.90;;;;;;4991144;28;20476;-52
2023/03/27 04:49:28;;;;;;;2.33;1.80;;;0.30;99.90;;;;;;5006913;28;20480;-50
2023/03/27 04:51:55;;;;;;;2.80;1.80;;;0.30;99.90;;;;;;5008273;28;20523;-50
2023/03/27 04:54:22;;;;;;;2.10;2.00;;;0.30;99.90;;;;;;4984865;28;20456;-51
2023/03/27 04:56:50;;;;;;;1.97;1.70;;;0.30;99.90;;;;;;4988421;28;20830;-50
2023/03/27 04:59:17;;;;;;;5.03;2.00;;;0.30;99.90;;;;;;5002024;28;20550;-50
2023/03/27 05:01:45;;;;;;;2.43;2.23;;;0.30;99.90;;;;;;4999656;28;20465;-50
2023/03/27 05:04:12;;;;;;;3.67;1.77;;;0.30;99.90;;;;;;5004399;28;20460;-50
2023/03/27 05:06:39;;;;;;;5.80;1.77;;;0.30;99.90;;;;;;5013445;28;20471;-50
2023/03/27 05:09:05;;;;;;;6.83;2.30;;;0.40;99.90;;;;;;4997181;28;20520;-51
2023/03/27 05:11:32;;;;;;;3.83;2.30;;;0.20;20.50;;;;;;4998937;28;20461;-51
2023/03/27 05:14:00;;;;;;;6.50;1.70;;;0.20;99.90;;;;;;4993048;28;20476;-50
2023/03/27 05:16:27;;;;;;;6.00;1.70;;;0.20;85.50;;;;;;4992808;28;21006;-51
2023/03/27 05:18:53;;;;;;;2.57;1.70;;;0.20;93.40;;;;;;4990475;28;20489;-51
2023/03/27 05:21:20;;;;;;;3.30;1.47;;;0.20;76.50;;;;;;4996169;28;20876;-51
2023/03/27 05:23:47;;;;;;;0.97;0.97;;;0.20;29.30;;;;;;5010603;28;20491;-50
2023/03/27 05:26:13;;;;;;;4.07;1.70;;;0.30;24.70;;;;;;4987789;28;20460;-51
2023/03/27 05:28:41;;;;;;;4.93;1.43;;;0.30;34.20;;;;;;4980631;28;20644;-52
2023/03/27 05:31:09;;;;;;;3.00;1.50;;;0.30;35.20;;;;;;4998499;28;20457;-51
2023/03/27 05:33:36;;;;;;;5.13;1.83;;;0.20;37.10;;;;;;4982322;28;20509;-51
2023/03/27 05:36:04;;;;;;;2.37;1.80;;;0.20;37.00;;;;;;4994757;28;20453;-51
2023/03/27 05:38:31;;;;;;;2.07;1.90;;;0.20;38.20;;;;;;4998527;28;21019;-51
2023/03/27 05:40:59;;;;;;;1.83;1.40;;;0.30;31.20;;;;;;5008375;28;20465;-52
2023/03/27 05:43:26;;;;;;;6.40;1.90;;;0.30;31.70;;;;;;5002763;28;20543;-52
2023/03/27 05:45:52;;;;;;;2.40;1.57;;;0.30;37.90;;;;;;4996946;28;20522;-51
2023/03/27 05:48:20;;;;;;;1.57;1.30;;;0.40;36.70;;;;;;4995693;28;20467;-52
2023/03/27 05:50:47;;;;;;;3.33;1.40;;;0.40;41.60;;;;;;4982534;28;20502;-51
2023/03/27 05:53:14;;;;;;;2.03;1.77;;;0.60;45.40;;;;;;4995567;28;20466;-52
2023/03/27 05:55:41;;;;;;;3.30;1.77;;;0.80;52.90;;;;;;5002789;28;20879;-52
2023/03/27 05:58:08;;;;;;;1.93;1.50;;;1.10;69.50;;;;;;5001549;28;21001;-51
2023/03/27 06:00:35;;;;;;;2.40;1.90;;;1.40;99.50;;;;;;4998038;28;20943;-52
2023/03/27 06:03:03;;;;;;;2.53;2.00;;;1.70;99.90;;;;;;5003173;28;21063;-52
2023/03/27 06:05:31;;;;;;;2.10;1.60;;;1.80;99.90;;;;;;5000166;28;20469;-52
2023/03/27 06:07:58;;;;;;;3.03;1.80;;;2.00;99.90;;;;;;4989138;28;20548;-51
2023/03/27 06:10:26;;;;;;;5.07;1.70;;;2.20;99.90;;;;;;4989527;28;20474;-52
2023/03/27 06:12:59;;;;;;;4.60;2.10;;;2.40;99.90;;;;;;4977927;28;20480;-51
2023/03/27 06:15:26;;;;;;;1.93;1.80;;;2.50;24.30;;;;;;4991247;28;20465;-51
2023/03/27 06:17:53;;;;;;;5.50;1.90;;;2.30;35.90;;;;;;4994696;28;20947;-51
2023/03/27 06:20:20;;;;;;;1.57;1.47;;;2.50;30.70;;;;;;4994921;28;20484;-51
2023/03/27 06:22:50;;;;;;;1.80;1.70;;;2.60;35.80;;;;;;4985585;28;20540;-51
2023/03/27 06:25:18;;;;;;;3.60;2.00;;;2.70;40.10;;;;;;4983794;28;20527;-51
2023/03/27 06:27:47;;;;;;;4.47;2.20;;;2.50;38.30;;;;;;4993689;28;20465;-51
2023/03/27 06:30:16;;;;;;;3.90;1.77;;;2.60;34.40;;;;;;4989218;28;21042;-51
2023/03/27 06:32:44;;;;;;;2.50;1.87;;;2.90;39.10;;;;;;4996746;28;20447;-50
2023/03/27 06:35:13;;;;;;;4.93;2.60;;;3.30;37.40;;;;;;4985432;28;20469;-51
2023/03/27 06:37:40;;;;;;;4.00;1.60;;;3.20;52.80;;;;;;4999218;28;20466;-51
2023/03/27 06:40:18;;;;;;;4.23;1.93;;;3.20;57.80;;;;;;5000004;28;20486;-52
2023/03/27 06:42:49;;;;;;;2.43;1.70;;;3.20;62.50;;;;;;4994063;28;20513;-52
2023/03/27 06:45:15;;;;;;;2.93;2.00;;;3.10;62.10;;;;;;4999463;28;20463;-51
2023/03/27 06:47:48;;;;;;;12.53;7.20;;;2.80;55.10;;;;;;5000376;28;20507;-52
2023/03/27 06:50:15;;;;;;;3.43;2.90;;;2.80;48.60;;;;;;5005884;23;20527;-52
2023/03/27 06:52:42;;;;;;;2.10;1.90;;;2.90;52.80;;;;;;4993564;28;20516;-53
2023/03/27 06:55:10;;;;;;;2.83;2.30;;;3.00;55.10;;;;;;4993019;28;20465;-52
2023/03/27 06:57:42;;;;;;;2.40;2.30;;;3.10;54.80;;;;;;4993153;28;20457;-53
2023/03/27 07:00:11;;;;;;;5.10;2.60;;;3.40;56.90;;;;;;4992621;28;20544;-53
2023/03/27 07:02:38;;;;;;;2.33;2.07;;;3.10;65.00;;;;;;4988302;28;20495;-53
2023/03/27 07:05:06;;;;;;;2.70;2.17;;;3.20;51.80;;;;;;4989768;28;21417;-52
2023/03/27 07:07:33;;;;;;;5.03;1.97;;;3.10;52.60;;;;;;4992685;28;20989;-54
2023/03/27 07:09:59;;;;;;;2.00;1.90;;;3.20;50.70;;;;;;4990320;28;20894;-53
2023/03/27 07:12:27;;;;;;;2.20;1.70;;;3.20;61.00;;;;;;4992192;28;20548;-52
2023/03/27 07:14:54;;;;;;;3.43;1.90;;;3.40;57.60;;;;;;4976352;28;20450;-53
2023/03/27 07:17:21;;;;;;;2.13;2.00;;;3.50;61.40;;;;;;4992787;28;21197;-53
2023/03/27 07:19:47;;;;;;;5.03;1.90;;;3.70;73.10;;;;;;4990919;28;20579;-52
2023/03/27 07:22:14;;;;;;;3.57;2.10;;;3.80;82.40;;;;;;4984101;28;20466;-52
2023/03/27 07:24:41;;;;;;;1.73;1.53;;;3.80;98.00;;;;;;4990691;28;20905;-52
2023/03/27 07:27:08;;;;;;;1.80;1.67;;;4.40;97.10;;;;;;4992509;28;20561;-53
2023/03/27 07:29:36;;;;;;;1.63;1.50;;;4.20;99.90;;;;;;4991042;28;20481;-53
2023/03/27 07:32:04;;;;;;;4.33;1.50;;;4.50;99.90;;;;;;4991948;28;20446;-52
2023/03/27 07:34:30;;;;;;;2.20;1.33;;;4.70;99.90;;;;;;4990163;28;20465;-53
2023/03/27 07:36:57;;;;;;;1.70;1.60;;;5.20;99.90;;;;;;4993246;28;20519;-53
2023/03/27 07:39:24;;;;;;;2.30;1.67;;;4.80;99.90;;;;;;4992057;28;20550;-53
2023/03/27 07:41:51;;;;;;;1.50;1.40;;;4.50;99.90;;;;;;4992412;28;20458;-53
2023/03/27 07:44:18;;;;;;;2.47;2.37;;;4.90;99.90;;;;;;4983426;28;20492;-52
2023/03/27 07:46:46;;;;;;;1.60;1.50;;;4.60;99.90;;;;;;4991847;28;20470;-53
2023/03/27 07:49:13;;;;;;;3.13;1.60;;;4.90;99.90;;;;;;4991316;28;20477;-52
2023/03/27 07:51:40;;;;;;;2.27;2.07;;;4.40;99.90;;;;;;4990926;28;20525;-53
2023/03/27 07:54:07;;;;;;;1.73;1.43;;;4.30;99.90;;;;;;4990960;28;20461;-53
2023/03/27 07:56:34;;;;;;;2.00;1.90;;;4.30;99.90;;;;;;4992253;28;20963;-53
2023/03/27 07:59:01;;;;;;;1.83;1.30;;;4.40;99.90;;;;;;4990715;28;20487;-53
2023/03/27 08:01:28;;;;;;;2.40;1.37;;;5.00;99.90;;;;;;4993173;28;20451;-52
2023/03/27 08:03:55;;;;;;;2.57;1.33;;;4.70;99.90;;;;;;4991459;28;20490;-52
2023/03/27 08:06:22;;;;;;;3.43;3.23;;;4.60;99.90;;;;;;4989040;28;20928;-52
2023/03/27 08:08:49;;;;;;;5.23;2.70;;;4.30;99.90;;;;;;4987534;28;20473;-53
2023/03/27 08:11:17;;;;;;;4.97;1.60;;;4.20;99.90;;;;;;4988519;28;20522;-53
2023/03/27 08:13:44;;;;;;;1.50;1.40;;;4.70;99.90;;;;;;4993432;28;20464;-53
2023/03/27 08:16:13;;;;;;;2.10;1.43;;;5.00;99.90;;;;;;4994670;28;20461;-53
2023/03/27 08:18:41;;;;;;;1.17;1.17;;;5.10;99.90;;;;;;4998073;28;20887;-53
2023/03/27 08:21:11;;;;;;;3.07;1.53;;;5.30;1.40;;;;;;4989396;28;20945;-53
2023/03/27 08:23:39;;;;;;;4.60;1.60;;;5.10;99.90;;;;;;4990768;28;20480;-52
2023/03/27 08:26:06;;;;;;;3.00;1.53;;;4.90;99.90;;;;;;4990977;28;20473;-52
2023/03/27 08:28:35;;;;;;;1.87;1.73;;;4.60;99.90;;;;;;4988937;28;20457;-52
2023/03/27 08:31:08;;;;;;;2.13;1.93;;;4.80;99.90;;;;;;4989386;28;20878;-52
2023/03/27 08:33:35;;;;;;;1.67;1.57;;;4.60;99.90;;;;;;4990777;28;20541;-53
2023/03/27 08:36:03;;;;;;;3.13;1.97;;;4.50;99.90;;;;;;4994792;28;20543;-54
2023/03/27 08:38:32;;;;;;;6.97;1.90;;;4.40;99.90;;;;;;4996178;28;20476;-53
2023/03/27 08:41:02;;;;;;;10.23;9.00;;;4.80;99.90;;;;;;4989459;28;20465;-53
2023/03/27 08:43:33;;;;;;;2.13;2.03;;;5.30;99.90;;;;;;4981351;28;20492;-53
2023/03/27 08:46:04;;;;;;;2.93;2.03;;;5.60;99.90;;;;;;4992459;28;20464;-53
2023/03/27 08:48:35;;;;;;;3.43;1.30;;;6.50;99.90;;;;;;4993651;28;20487;-53
2023/03/27 08:51:06;;;;;;;4.37;2.90;;;6.60;99.90;;;;;;4993262;28;20498;-54
2023/03/27 08:53:43;;;;;;;2.47;1.50;;;5.70;99.90;;;;;;4996299;28;20453;-53
2023/03/27 08:56:13;;;;;;;1.33;1.23;;;5.40;99.90;;;;;;4996539;28;21262;-53
2023/03/27 08:58:41;;;;;;;6.87;2.87;;;5.10;99.90;;;;;;4995060;28;20455;-52
2023/03/27 09:01:16;;;;;;;2.10;1.30;;;5.80;99.90;;;;;;4992195;28;20464;-53
2023/03/27 09:03:47;;;;;;;3.37;1.50;;;6.60;99.90;;;;;;4990556;28;20562;-54
2023/03/27 09:06:24;;;;;;;1.63;1.00;;;7.60;99.90;;;;;;4989431;28;20457;-52
2023/03/27 09:09:02;;;;;;;1.47;1.37;;;6.50;99.90;;;;;;4995868;28;20840;-52
2023/03/27 09:11:44;;;;;;;2.80;2.60;;;6.10;99.90;;;;;;4986684;28;20462;-54
2023/03/27 09:14:21;;;;;;;3.57;2.73;;;6.00;99.90;;;;;;4997818;28;20456;-53
2023/03/27 09:16:50;;;;;;;6.63;2.53;;;5.90;99.90;;;;;;5005545;28;20469;-52
2023/03/27 09:19:28;;;;;;;1.27;1.27;;;5.60;99.90;;;;;;5009914;28;20516;-53
2023/03/27 09:22:00;;;;;;;1.60;1.50;;;5.20;99.90;;;;;;5006574;28;20465;-53
2023/03/27 09:24:31;;;;;;;2.27;1.47;;;5.10;99.90;;;;;;4988529;28;20485;-53
2023/03/27 09:27:00;;;;;;;1.17;1.13;;;4.80;99.90;;;;;;4993188;28;20998;-53
2023/03/27 09:29:31;;;;;;;2.50;1.33;;;5.40;99.90;;;;;;4991229;28;20559;-53
2023/03/27 09:31:58;;;;;;;1.27;1.17;;;6.00;99.90;;;;;;4985531;28;21148;-53
2023/03/27 09:34:28;;;;;;;2.73;1.63;;;5.70;99.90;;;;;;4987938;28;20493;-53
2023/03/27 09:36:56;;;;;;;2.60;1.37;;;5.70;99.90;;;;;;4994477;28;20468;-53
2023/03/27 09:39:32;;;;;;;5.53;2.33;;;5.40;99.90;;;;;;4992085;28;20574;-53
2023/03/27 09:42:05;;;;;;;4.90;1.30;;;5.20;99.90;;;;;;4992086;28;20468;-53
2023/03/27 09:44:35;;;;;;;1.53;1.40;;;5.10;99.90;;;;;;4990646;28;20469;-52
2023/03/27 09:47:06;;;;;;;1.10;1.10;;;6.20;99.90;;;;;;4993503;28;20514;-53
2023/03/27 09:49:34;;;;;;;1.30;1.30;;;6.50;99.90;;;;;;4986806;28;28347;-52
2023/03/27 09:52:01;;;;;;;4.27;2.07;;;6.40;99.90;;;;;;4991320;28;20962;-53
2023/03/27 09:54:30;;;;;;;3.80;3.60;;;7.60;99.90;;;;;;4989752;28;20519;-53
2023/03/27 09:57:03;;;;;;;2.93;1.43;;;7.30;99.90;;;;;;4992041;28;20643;-53
2023/03/27 09:59:33;;;;;;;1.40;1.30;;;5.90;99.90;;;;;;4988441;28;20477;-52
2023/03/27 10:02:08;;;;;;;1.90;1.20;;;6.10;99.90;;;;;;4996383;28;20514;-53
2023/03/27 10:04:35;;;;;;;1.33;0.90;;;7.20;99.90;;;;;;4984949;28;20480;-53
2023/03/27 10:07:05;;;;;;;1.57;1.37;;;7.80;99.90;;;;;;4991360;28;20469;-52
2023/03/27 10:09:35;;;;;;;1.30;1.20;;;7.80;99.90;;;;;;4991220;28;20504;-52
2023/03/27 10:12:09;;;;;;;2.23;1.83;;;7.50;99.90;;;;;;4992481;28;20846;-53
2023/03/27 10:14:38;;;;;;;2.47;1.33;;;7.00;99.90;;;;;;4985476;28;20480;-52
2023/03/27 10:17:05;;;;;;;3.70;1.23;;;6.40;99.90;;;;;;4991150;28;20488;-52
2023/03/27 10:19:35;;;;;;;1.73;1.13;;;6.20;99.90;;;;;;4991524;28;20490;-52
2023/03/27 10:22:17;;;;;;;3.13;1.77;;;5.90;99.90;;;;;;4994705;28;20444;-52
2023/03/27 10:24:47;;;;;;;3.43;2.50;;;6.30;99.90;;;;;;4991843;28;20473;-52
2023/03/27 10:27:19;;;;;;;5.70;1.87;;;6.50;99.90;;;;;;4993655;28;20516;-52
2023/03/27 10:29:45;;;;;;;1.90;1.33;;;7.60;99.90;;;;;;4989412;28;20485;-52
2023/03/27 10:32:12;;;;;;;1.27;1.10;;;7.10;99.90;;;;;;4993752;28;20465;-54
2023/03/27 10:34:50;;;;;;;3.77;1.30;;;7.20;99.90;;;;;;4992924;28;20457;-53
2023/03/27 10:37:27;;;;;;;12.10;1.30;;;7.00;99.90;;;;;;4983751;28;20557;-53
2023/03/27 10:39:57;;;;;;;5.67;2.33;;;7.20;99.90;;;;;;4992119;28;20480;-53
2023/03/27 10:42:27;;;;;;;3.00;1.40;;;7.10;99.90;;;;;;4991889;28;20523;-52
2023/03/27 10:44:56;;;;;;;1.47;1.23;;;6.90;99.90;;;;;;4992434;28;20557;-53
2023/03/27 10:47:25;;;;;;;2.90;1.47;;;6.50;99.90;;;;;;4992118;28;20465;-52
2023/03/27 10:50:01;;;;;;;5.70;1.20;;;6.20;99.90;;;;;;4994267;28;20481;-52
2023/03/27 10:52:35;;;;;;;1.10;1.10;;;7.30;99.90;;;;;;4987478;28;20461;-54
2023/03/27 10:55:14;;;;;;;3.63;1.43;;;7.80;99.90;;;;;;4992124;28;20461;-53
2023/03/27 10:57:53;;;;;;;1.57;1.47;;;7.10;99.90;;;;;;4982038;28;20457;-52
2023/03/27 11:00:31;;;;;;;2.50;1.80;;;7.60;99.90;;;;;;4990764;28;20500;-54
2023/03/27 11:03:02;;;;;;;3.27;1.57;;;7.60;99.90;;;;;;4988911;28;20468;-54
2023/03/27 11:05:33;;;;;;;1.97;1.50;;;7.70;99.90;;;;;;4991016;28;20493;-53
2023/03/27 11:08:06;;;;;;;1.67;1.20;;;7.80;99.90;;;;;;4992038;28;20523;-53
2023/03/27 11:10:37;;;;;;;1.43;1.17;;;8.30;99.90;;;;;;4993859;28;20473;-54
2023/03/27 11:13:09;;;;;;;1.93;1.20;;;8.80;99.90;;;;;;4992664;28;20465;-53
2023/03/27 11:15:41;;;;;;;3.70;1.87;;;9.50;99.90;;;;;;4991780;28;20503;-53
2023/03/27 11:18:14;;;;;;;2.60;1.20;;;9.30;99.90;;;;;;5010826;28;20460;-53
2023/03/27 11:20:44;;;;;;;1.00;1.00;;;8.90;99.90;;;;;;5008717;28;20483;-52
2023/03/27 11:23:17;;;;;;;4.57;1.87;;;8.60;99.90;;;;;;5000449;28;20455;-53
2023/03/27 11:25:47;;;;;;;1.37;1.27;;;8.50;99.90;;;;;;5001119;28;20531;-54
2023/03/27 11:28:22;;;;;;;3.40;3.10;;;8.30;99.90;;;;;;5000344;28;20963;-53
2023/03/27 11:30:54;;;;;;;2.40;1.43;;;8.60;99.90;;;;;;4989541;28;20488;-53
2023/03/27 11:33:32;;;;;;;2.67;1.30;;;8.60;99.90;;;;;;4988244;28;20469;-53
2023/03/27 11:36:08;;;;;;;2.73;1.73;;;8.40;99.90;;;;;;4980073;28;20484;-52
2023/03/27 11:38:41;;;;;;;6.00;1.67;;;8.90;99.90;;;;;;4992461;28;20468;-53
2023/03/27 11:41:12;;;;;;;2.10;1.90;;;8.50;99.90;;;;;;4989133;28;20459;-54
2023/03/27 11:43:39;;;;;;;2.07;1.80;;;8.40;99.90;;;;;;4991467;28;22384;-52
2023/03/27 11:46:19;;;;;;;4.80;2.00;;;8.10;99.90;;;;;;4989015;28;20886;-53
2023/03/27 11:49:00;;;;;;;3.40;1.70;;;8.30;99.90;;;;;;4990879;28;20515;-52
2023/03/27 11:51:40;;;;;;;3.63;1.53;;;7.70;99.90;;;;;;4989644;28;20462;-53
2023/03/27 11:54:28;;;;;;;2.07;1.33;;;8.00;99.90;;;;;;4989395;28;20466;-53
2023/03/27 11:56:58;;;;;;;2.87;1.53;;;8.30;99.90;;;;;;4989564;28;20900;-53
2023/03/27 11:59:56;;;;;;;1.40;1.07;;;7.90;99.90;;;;;;4989322;28;20485;-54
2023/03/27 12:02:41;;;;;;;1.37;1.20;;;8.20;99.90;;;;;;4988720;28;20549;-53
2023/03/27 12:05:19;;;;;;;1.60;1.40;;;8.80;99.90;;;;;;4985385;28;20573;-53
2023/03/27 12:07:55;;;;;;;1.13;1.10;;;8.90;99.90;;;;;;4988487;28;20501;-53
2023/03/27 12:10:28;;;;;;;2.40;1.23;;;8.50;99.90;;;;;;4990507;28;20481;-54
2023/03/27 12:13:27;;;;;;;1.30;1.30;;;8.00;99.90;;;;;;4992908;28;20459;-54
2023/03/27 12:16:19;;;;;;;3.13;1.93;;;8.00;99.90;;;;;;4986652;28;20461;-53
2023/03/27 12:18:53;;;;;;;1.97;1.33;;;8.00;99.90;;;;;;4990108;28;20957;-53
2023/03/27 12:21:28;;;;;;;2.50;1.73;;;7.50;99.90;;;;;;4988795;28;20459;-53
2023/03/27 12:24:20;;;;;;;5.30;3.43;;;7.50;99.90;;;;;;4987494;28;20597;-53
2023/03/27 12:27:04;;;;;;;4.70;2.90;;;7.20;99.90;;;;;;4989886;28;20477;-53
2023/03/27 12:29:57;;;;;;;4.97;1.87;;;6.90;99.90;;;;;;4979897;28;20485;-53
2023/03/27 12:32:46;;;;;;;2.30;2.10;;;7.00;99.90;;;;;;4986120;28;20493;-52
2023/03/27 12:35:16;;;;;;;4.70;1.60;;;7.10;99.90;;;;;;4995470;28;20461;-52
2023/03/27 12:37:48;;;;;;;2.50;1.80;;;6.70;99.90;;;;;;4990604;28;20459;-53
2023/03/27 12:40:27;;;;;;;5.13;2.20;;;6.60;99.90;;;;;;4982524;28;21007;-53
2023/03/27 12:43:05;;;;;;;2.63;2.50;;;6.80;99.90;;;;;;4986490;28;20872;-53
2023/03/27 12:45:33;;;;;;;2.13;1.40;;;6.70;99.90;;;;;;4988057;28;20561;-54
2023/03/27 12:48:17;;;;;;;3.73;1.80;;;6.50;99.90;;;;;;4981867;28;20488;-53
2023/03/27 12:50:53;;;;;;;1.70;1.60;;;5.20;99.90;;;;;;4993388;28;20501;-56
2023/03/27 12:53:47;;;;;;;3.10;1.40;;;4.80;99.90;;;;;;4990774;28;20520;-57
2023/03/27 12:56:36;;;;;;;3.27;3.07;;;4.90;94.70;;;;;;4992673;28;20931;-57
2023/03/27 12:59:18;;;;;;;2.80;2.60;;;5.90;99.90;;;;;;4989113;28;20485;-57
2023/03/27 13:02:29;;;;;;;2.67;2.47;;;5.50;99.90;;;;;;4992746;28;20460;-56
2023/03/27 13:05:21;;;;;;;2.27;2.17;;;6.20;99.90;;;;;;4989088;28;20889;-57
2023/03/27 13:07:57;;;;;;;3.07;2.20;;;6.60;99.90;;;;;;4999216;28;20547;-56
2023/03/27 13:10:38;;;;;;;10.50;2.13;;;7.50;99.90;;;;;;4984505;28;20482;-58
2023/03/27 13:13:52;;;;;;;11.20;2.57;;;7.80;99.90;;;;;;4991247;28;20442;-56
2023/03/27 13:16:31;;;;;;;8.00;2.33;;;7.90;99.90;;;;;;4987025;28;20469;-56
2023/03/27 13:19:31;;;;;;;6.13;1.60;;;7.10;99.90;;;;;;4982672;28;20499;-57
2023/03/27 13:22:19;;;;;;;1.90;1.60;;;6.40;99.90;;;;;;4986913;28;20490;-56
2023/03/27 13:25:06;;;;;;;2.37;1.40;;;6.30;99.90;;;;;;4989694;28;20509;-57